sensor_id;sensor_type;location;lat;lon;timestamp;P1;durP1;ratioP1;P2;durP2;ratioP2
11334;SDS011;5722;42.620;23.374;2023-02-28T00:00:47;24.17;;;16.93;;
11334;SDS011;5722;42.620;23.374;2023-02-28T00:03:18;23.87;;;17.10;;
11334;SDS011;5722;42.620;23.374;2023-02-28T00:05:46;26.70;;;16.97;;
11334;SDS011;5722;42.620;23.374;2023-02-28T00:08:17;23.63;;;15.80;;
11334;SDS011;5722;42.620;23.374;2023-02-28T00:10:48;22.17;;;15.20;;
11334;SDS011;5722;42.620;23.374;2023-02-28T00:13:20;21.87;;;14.70;;
11334;SDS011;5722;42.620;23.374;2023-02-28T00:15:51;21.17;;;15.00;;
11334;SDS011;5722;42.620;23.374;2023-02-28T00:18:26;22.23;;;15.73;;
11334;SDS011;5722;42.620;23.374;2023-02-28T00:20:55;21.77;;;15.20;;
11334;SDS011;5722;42.620;23.374;2023-02-28T00:23:36;22.40;;;14.93;;
11334;SDS011;5722;42.620;23.374;2023-02-28T00:26:06;18.53;;;13.90;;
11334;SDS011;5722;42.620;23.374;2023-02-28T00:28:39;20.77;;;14.80;;
11334;SDS011;5722;42.620;23.374;2023-02-28T00:31:08;19.40;;;13.23;;
11334;SDS011;5722;42.620;23.374;2023-02-28T00:33:37;20.30;;;13.63;;
11334;SDS011;5722;42.620;23.374;2023-02-28T00:36:06;19.13;;;14.30;;
11334;SDS011;5722;42.620;23.374;2023-02-28T00:38:33;20.37;;;14.33;;
11334;SDS011;5722;42.620;23.374;2023-02-28T00:41:07;24.03;;;15.83;;
11334;SDS011;5722;42.620;23.374;2023-02-28T00:43:35;22.07;;;14.97;;
11334;SDS011;5722;42.620;23.374;2023-02-28T00:46:11;22.67;;;15.13;;
11334;SDS011;5722;42.620;23.374;2023-02-28T00:48:51;25.67;;;15.77;;
11334;SDS011;5722;42.620;23.374;2023-02-28T00:51:19;23.30;;;16.37;;
11334;SDS011;5722;42.620;23.374;2023-02-28T00:53:47;24.17;;;16.20;;
11334;SDS011;5722;42.620;23.374;2023-02-28T00:56:17;22.57;;;17.20;;
11334;SDS011;5722;42.620;23.374;2023-02-28T00:58:47;28.73;;;19.00;;
11334;SDS011;5722;42.620;23.374;2023-02-28T01:01:21;26.67;;;17.80;;
11334;SDS011;5722;42.620;23.374;2023-02-28T01:03:48;25.37;;;17.63;;
11334;SDS011;5722;42.620;23.374;2023-02-28T01:06:22;21.73;;;15.00;;
11334;SDS011;5722;42.620;23.374;2023-02-28T01:08:49;21.77;;;15.10;;
11334;SDS011;5722;42.620;23.374;2023-02-28T01:33:00;22.57;;;16.13;;
11334;SDS011;5722;42.620;23.374;2023-02-28T01:35:34;24.27;;;16.43;;
11334;SDS011;5722;42.620;23.374;2023-02-28T01:38:01;25.50;;;16.13;;
11334;SDS011;5722;42.620;23.374;2023-02-28T01:40:32;26.53;;;16.87;;
11334;SDS011;5722;42.620;23.374;2023-02-28T01:43:04;21.77;;;15.93;;
11334;SDS011;5722;42.620;23.374;2023-02-28T01:45:31;27.63;;;17.97;;
11334;SDS011;5722;42.620;23.374;2023-02-28T01:48:09;26.50;;;16.87;;
11334;SDS011;5722;42.620;23.374;2023-02-28T01:50:38;26.33;;;17.47;;
11334;SDS011;5722;42.620;23.374;2023-02-28T01:53:15;32.53;;;19.70;;
11334;SDS011;5722;42.620;23.374;2023-02-28T01:55:46;34.07;;;20.10;;
11334;SDS011;5722;42.620;23.374;2023-02-28T01:58:14;35.90;;;20.87;;
11334;SDS011;5722;42.620;23.374;2023-02-28T02:00:42;37.87;;;21.23;;
11334;SDS011;5722;42.620;23.374;2023-02-28T02:03:22;35.77;;;20.70;;
11334;SDS011;5722;42.620;23.374;2023-02-28T02:05:49;36.27;;;21.87;;
11334;SDS011;5722;42.620;23.374;2023-02-28T02:08:19;38.87;;;22.27;;
11334;SDS011;5722;42.620;23.374;2023-02-28T02:10:52;66.23;;;23.70;;
11334;SDS011;5722;42.620;23.374;2023-02-28T02:13:26;37.40;;;22.70;;
11334;SDS011;5722;42.620;23.374;2023-02-28T02:16:08;66.93;;;20.03;;
11334;SDS011;5722;42.620;23.374;2023-02-28T02:18:40;43.73;;;21.67;;
11334;SDS011;5722;42.620;23.374;2023-02-28T02:21:22;38.03;;;21.20;;
11334;SDS011;5722;42.620;23.374;2023-02-28T02:24:04;46.20;;;20.87;;
11334;SDS011;5722;42.620;23.374;2023-02-28T02:26:42;46.03;;;20.37;;
11334;SDS011;5722;42.620;23.374;2023-02-28T02:29:29;57.77;;;21.50;;
11334;SDS011;5722;42.620;23.374;2023-02-28T02:35:01;44.53;;;23.50;;
11334;SDS011;5722;42.620;23.374;2023-02-28T02:37:34;70.23;;;22.67;;
11334;SDS011;5722;42.620;23.374;2023-02-28T02:40:09;143.57;;;24.00;;
11334;SDS011;5722;42.620;23.374;2023-02-28T02:42:39;72.87;;;22.80;;
11334;SDS011;5722;42.620;23.374;2023-02-28T02:45:12;74.17;;;21.60;;
11334;SDS011;5722;42.620;23.374;2023-02-28T02:47:45;47.17;;;19.67;;
11334;SDS011;5722;42.620;23.374;2023-02-28T02:50:25;244.57;;;24.07;;
11334;SDS011;5722;42.620;23.374;2023-02-28T02:52:56;254.27;;;24.60;;
11334;SDS011;5722;42.620;23.374;2023-02-28T02:55:28;150.47;;;21.90;;
11334;SDS011;5722;42.620;23.374;2023-02-28T02:58:01;141.33;;;21.53;;
11334;SDS011;5722;42.620;23.374;2023-02-28T03:00:30;142.57;;;21.57;;
11334;SDS011;5722;42.620;23.374;2023-02-28T03:03:01;143.90;;;21.53;;
11334;SDS011;5722;42.620;23.374;2023-02-28T03:05:39;185.00;;;22.40;;
11334;SDS011;5722;42.620;23.374;2023-02-28T03:08:09;165.37;;;24.07;;
11334;SDS011;5722;42.620;23.374;2023-02-28T03:10:37;236.20;;;24.63;;
11334;SDS011;5722;42.620;23.374;2023-02-28T03:16:01;58.00;;;20.60;;
11334;SDS011;5722;42.620;23.374;2023-02-28T03:18:40;56.47;;;19.43;;
11334;SDS011;5722;42.620;23.374;2023-02-28T03:21:16;71.00;;;21.63;;
11334;SDS011;5722;42.620;23.374;2023-02-28T03:23:51;110.97;;;22.77;;
11334;SDS011;5722;42.620;23.374;2023-02-28T03:26:22;73.40;;;20.57;;
11334;SDS011;5722;42.620;23.374;2023-02-28T03:28:52;50.40;;;19.77;;
11334;SDS011;5722;42.620;23.374;2023-02-28T03:31:22;150.00;;;21.67;;
11334;SDS011;5722;42.620;23.374;2023-02-28T03:33:54;331.77;;;26.07;;
11334;SDS011;5722;42.620;23.374;2023-02-28T03:36:27;118.77;;;20.97;;
11334;SDS011;5722;42.620;23.374;2023-02-28T03:38:59;152.97;;;22.83;;
11334;SDS011;5722;42.620;23.374;2023-02-28T03:41:47;79.03;;;21.90;;
11334;SDS011;5722;42.620;23.374;2023-02-28T03:44:18;227.23;;;28.20;;
11334;SDS011;5722;42.620;23.374;2023-02-28T03:46:52;323.57;;;29.03;;
11334;SDS011;5722;42.620;23.374;2023-02-28T03:49:22;140.67;;;22.50;;
11334;SDS011;5722;42.620;23.374;2023-02-28T03:51:53;67.27;;;19.93;;
11334;SDS011;5722;42.620;23.374;2023-02-28T03:54:25;80.93;;;19.80;;
11334;SDS011;5722;42.620;23.374;2023-02-28T03:56:55;88.00;;;20.90;;
11334;SDS011;5722;42.620;23.374;2023-02-28T03:59:25;183.27;;;23.40;;
11334;SDS011;5722;42.620;23.374;2023-02-28T04:02:05;262.93;;;23.93;;
11334;SDS011;5722;42.620;23.374;2023-02-28T04:04:34;193.77;;;23.47;;
11334;SDS011;5722;42.620;23.374;2023-02-28T04:07:04;214.67;;;25.50;;
11334;SDS011;5722;42.620;23.374;2023-02-28T04:09:36;290.80;;;25.83;;
11334;SDS011;5722;42.620;23.374;2023-02-28T04:12:14;209.37;;;25.40;;
11334;SDS011;5722;42.620;23.374;2023-02-28T04:14:46;260.47;;;26.17;;
11334;SDS011;5722;42.620;23.374;2023-02-28T04:17:14;179.63;;;22.17;;
11334;SDS011;5722;42.620;23.374;2023-02-28T04:19:43;458.83;;;33.37;;
11334;SDS011;5722;42.620;23.374;2023-02-28T04:24:56;511.00;;;34.60;;
11334;SDS011;5722;42.620;23.374;2023-02-28T04:27:26;420.83;;;33.63;;
11334;SDS011;5722;42.620;23.374;2023-02-28T04:29:54;525.23;;;36.07;;
11334;SDS011;5722;42.620;23.374;2023-02-28T04:32:24;545.50;;;33.50;;
11334;SDS011;5722;42.620;23.374;2023-02-28T04:34:51;492.77;;;35.57;;
11334;SDS011;5722;42.620;23.374;2023-02-28T04:37:22;399.97;;;29.63;;
11334;SDS011;5722;42.620;23.374;2023-02-28T04:39:57;505.10;;;29.40;;
11334;SDS011;5722;42.620;23.374;2023-02-28T04:42:26;536.53;;;33.87;;
11334;SDS011;5722;42.620;23.374;2023-02-28T04:45:03;390.20;;;32.47;;
11334;SDS011;5722;42.620;23.374;2023-02-28T04:47:32;292.23;;;25.10;;
11334;SDS011;5722;42.620;23.374;2023-02-28T04:50:00;304.67;;;26.23;;
11334;SDS011;5722;42.620;23.374;2023-02-28T04:52:29;265.57;;;23.07;;
11334;SDS011;5722;42.620;23.374;2023-02-28T04:55:01;409.37;;;28.33;;
11334;SDS011;5722;42.620;23.374;2023-02-28T04:57:30;305.33;;;26.40;;
11334;SDS011;5722;42.620;23.374;2023-02-28T05:00:01;335.47;;;25.93;;
11334;SDS011;5722;42.620;23.374;2023-02-28T05:02:43;356.50;;;26.40;;
11334;SDS011;5722;42.620;23.374;2023-02-28T05:05:13;330.17;;;27.37;;
11334;SDS011;5722;42.620;23.374;2023-02-28T05:07:53;324.97;;;25.77;;
11334;SDS011;5722;42.620;23.374;2023-02-28T05:10:29;232.37;;;27.73;;
11334;SDS011;5722;42.620;23.374;2023-02-28T05:12:57;374.80;;;28.73;;
11334;SDS011;5722;42.620;23.374;2023-02-28T05:15:27;446.33;;;31.47;;
11334;SDS011;5722;42.620;23.374;2023-02-28T05:17:57;304.53;;;27.77;;
11334;SDS011;5722;42.620;23.374;2023-02-28T05:20:37;418.97;;;29.53;;
11334;SDS011;5722;42.620;23.374;2023-02-28T05:23:07;391.00;;;32.47;;
11334;SDS011;5722;42.620;23.374;2023-02-28T05:26:02;263.77;;;25.27;;
11334;SDS011;5722;42.620;23.374;2023-02-28T05:28:29;221.80;;;26.70;;
11334;SDS011;5722;42.620;23.374;2023-02-28T05:31:02;68.93;;;23.70;;
11334;SDS011;5722;42.620;23.374;2023-02-28T05:33:31;142.77;;;28.67;;
11334;SDS011;5722;42.620;23.374;2023-02-28T05:35:58;55.07;;;23.20;;
11334;SDS011;5722;42.620;23.374;2023-02-28T05:38:28;69.77;;;21.90;;
11334;SDS011;5722;42.620;23.374;2023-02-28T05:44:04;57.57;;;20.33;;
11334;SDS011;5722;42.620;23.374;2023-02-28T05:46:34;45.40;;;19.43;;
11334;SDS011;5722;42.620;23.374;2023-02-28T05:49:11;30.43;;;18.53;;
11334;SDS011;5722;42.620;23.374;2023-02-28T05:54:55;32.10;;;18.57;;
11334;SDS011;5722;42.620;23.374;2023-02-28T06:11:34;32.50;;;23.70;;
11334;SDS011;5722;42.620;23.374;2023-02-28T06:14:01;38.50;;;25.93;;
11334;SDS011;5722;42.620;23.374;2023-02-28T06:16:36;37.00;;;27.43;;
11334;SDS011;5722;42.620;23.374;2023-02-28T06:19:08;29.13;;;20.40;;
11334;SDS011;5722;42.620;23.374;2023-02-28T06:21:49;28.30;;;18.30;;
11334;SDS011;5722;42.620;23.374;2023-02-28T06:24:30;25.47;;;16.67;;
11334;SDS011;5722;42.620;23.374;2023-02-28T06:27:12;25.27;;;17.63;;
11334;SDS011;5722;42.620;23.374;2023-02-28T06:29:44;23.63;;;16.00;;
11334;SDS011;5722;42.620;23.374;2023-02-28T06:32:21;26.03;;;16.83;;
11334;SDS011;5722;42.620;23.374;2023-02-28T06:34:58;21.50;;;15.50;;
11334;SDS011;5722;42.620;23.374;2023-02-28T06:37:41;24.57;;;16.27;;
11334;SDS011;5722;42.620;23.374;2023-02-28T06:40:25;23.47;;;15.50;;
11334;SDS011;5722;42.620;23.374;2023-02-28T06:45:56;21.77;;;13.93;;
11334;SDS011;5722;42.620;23.374;2023-02-28T06:48:33;22.97;;;15.40;;
11334;SDS011;5722;42.620;23.374;2023-02-28T06:54:12;23.80;;;16.40;;
11334;SDS011;5722;42.620;23.374;2023-02-28T06:56:52;25.80;;;16.90;;
11334;SDS011;5722;42.620;23.374;2023-02-28T06:59:23;28.97;;;18.23;;
11334;SDS011;5722;42.620;23.374;2023-02-28T07:02:00;25.37;;;18.13;;
11334;SDS011;5722;42.620;23.374;2023-02-28T07:04:37;31.47;;;19.57;;
11334;SDS011;5722;42.620;23.374;2023-02-28T07:07:14;27.60;;;19.47;;
11334;SDS011;5722;42.620;23.374;2023-02-28T07:10:00;29.97;;;19.37;;
11334;SDS011;5722;42.620;23.374;2023-02-28T07:12:32;28.63;;;20.20;;
11334;SDS011;5722;42.620;23.374;2023-02-28T07:14:59;33.80;;;21.37;;
11334;SDS011;5722;42.620;23.374;2023-02-28T07:17:37;35.67;;;21.60;;
11334;SDS011;5722;42.620;23.374;2023-02-28T07:20:07;35.77;;;21.37;;
11334;SDS011;5722;42.620;23.374;2023-02-28T07:22:53;30.80;;;21.03;;
11334;SDS011;5722;42.620;23.374;2023-02-28T07:25:22;31.80;;;21.63;;
11334;SDS011;5722;42.620;23.374;2023-02-28T07:30:41;31.77;;;21.07;;
11334;SDS011;5722;42.620;23.374;2023-02-28T07:33:15;29.67;;;19.77;;
11334;SDS011;5722;42.620;23.374;2023-02-28T07:36:07;31.03;;;19.80;;
11334;SDS011;5722;42.620;23.374;2023-02-28T07:38:47;33.20;;;20.10;;
11334;SDS011;5722;42.620;23.374;2023-02-28T07:41:28;29.73;;;20.27;;
11334;SDS011;5722;42.620;23.374;2023-02-28T07:44:11;32.10;;;19.47;;
11334;SDS011;5722;42.620;23.374;2023-02-28T07:52:13;31.33;;;21.27;;
11334;SDS011;5722;42.620;23.374;2023-02-28T07:54:54;30.63;;;19.47;;
11334;SDS011;5722;42.620;23.374;2023-02-28T07:57:39;31.93;;;20.53;;
11334;SDS011;5722;42.620;23.374;2023-02-28T08:00:10;27.23;;;18.73;;
11334;SDS011;5722;42.620;23.374;2023-02-28T08:02:48;32.90;;;18.90;;
11334;SDS011;5722;42.620;23.374;2023-02-28T08:05:38;29.97;;;19.30;;
11334;SDS011;5722;42.620;23.374;2023-02-28T08:08:18;28.23;;;18.20;;
11334;SDS011;5722;42.620;23.374;2023-02-28T08:10:47;24.60;;;17.73;;
11334;SDS011;5722;42.620;23.374;2023-02-28T08:13:23;26.50;;;17.37;;
11334;SDS011;5722;42.620;23.374;2023-02-28T08:16:03;29.20;;;17.83;;
11334;SDS011;5722;42.620;23.374;2023-02-28T08:18:41;27.40;;;17.87;;
11334;SDS011;5722;42.620;23.374;2023-02-28T08:21:21;25.47;;;17.33;;
11334;SDS011;5722;42.620;23.374;2023-02-28T08:26:38;23.17;;;15.57;;
11334;SDS011;5722;42.620;23.374;2023-02-28T08:31:39;18.87;;;11.33;;
11334;SDS011;5722;42.620;23.374;2023-02-28T08:34:18;18.40;;;10.70;;
11334;SDS011;5722;42.620;23.374;2023-02-28T08:36:51;18.03;;;11.43;;
11334;SDS011;5722;42.620;23.374;2023-02-28T08:39:36;14.47;;;9.97;;
11334;SDS011;5722;42.620;23.374;2023-02-28T08:44:51;17.13;;;9.27;;
11334;SDS011;5722;42.620;23.374;2023-02-28T08:50:10;17.80;;;9.73;;
11334;SDS011;5722;42.620;23.374;2023-02-28T08:52:56;15.57;;;9.63;;
11334;SDS011;5722;42.620;23.374;2023-02-28T08:55:29;19.67;;;10.07;;
11334;SDS011;5722;42.620;23.374;2023-02-28T08:57:56;18.40;;;8.77;;
11334;SDS011;5722;42.620;23.374;2023-02-28T09:00:33;15.83;;;8.40;;
11334;SDS011;5722;42.620;23.374;2023-02-28T09:03:05;15.33;;;8.30;;
11334;SDS011;5722;42.620;23.374;2023-02-28T09:05:51;17.30;;;9.03;;
11334;SDS011;5722;42.620;23.374;2023-02-28T09:08:27;16.30;;;8.40;;
11334;SDS011;5722;42.620;23.374;2023-02-28T09:11:11;21.17;;;9.03;;
11334;SDS011;5722;42.620;23.374;2023-02-28T09:13:39;15.33;;;8.07;;
11334;SDS011;5722;42.620;23.374;2023-02-28T09:19:07;14.90;;;8.40;;
11334;SDS011;5722;42.620;23.374;2023-02-28T09:22:11;19.97;;;8.90;;
11334;SDS011;5722;42.620;23.374;2023-02-28T09:24:45;16.67;;;8.70;;
11334;SDS011;5722;42.620;23.374;2023-02-28T09:27:25;14.83;;;8.77;;
11334;SDS011;5722;42.620;23.374;2023-02-28T09:29:56;18.10;;;8.90;;
11334;SDS011;5722;42.620;23.374;2023-02-28T09:32:38;15.33;;;8.57;;
11334;SDS011;5722;42.620;23.374;2023-02-28T09:35:23;13.43;;;7.60;;
11334;SDS011;5722;42.620;23.374;2023-02-28T09:37:52;12.63;;;8.10;;
11334;SDS011;5722;42.620;23.374;2023-02-28T09:40:34;15.87;;;8.50;;
11334;SDS011;5722;42.620;23.374;2023-02-28T09:43:17;15.50;;;8.43;;
11334;SDS011;5722;42.620;23.374;2023-02-28T09:45:47;21.77;;;8.57;;
11334;SDS011;5722;42.620;23.374;2023-02-28T09:48:29;18.40;;;8.63;;
11334;SDS011;5722;42.620;23.374;2023-02-28T09:54:02;14.60;;;7.37;;
11334;SDS011;5722;42.620;23.374;2023-02-28T09:59:42;14.53;;;10.07;;
11334;SDS011;5722;42.620;23.374;2023-02-28T10:02:16;20.93;;;8.03;;
11334;SDS011;5722;42.620;23.374;2023-02-28T10:04:50;17.87;;;8.43;;
11334;SDS011;5722;42.620;23.374;2023-02-28T10:07:40;15.50;;;8.10;;
11334;SDS011;5722;42.620;23.374;2023-02-28T10:30:40;19.43;;;7.80;;
11334;SDS011;5722;42.620;23.374;2023-02-28T10:33:28;16.83;;;8.47;;
11334;SDS011;5722;42.620;23.374;2023-02-28T10:35:59;18.57;;;7.87;;
11334;SDS011;5722;42.620;23.374;2023-02-28T10:38:44;17.03;;;7.77;;
11334;SDS011;5722;42.620;23.374;2023-02-28T10:41:30;14.60;;;8.37;;
11334;SDS011;5722;42.620;23.374;2023-02-28T10:44:17;15.83;;;8.57;;
11334;SDS011;5722;42.620;23.374;2023-02-28T11:02:57;15.37;;;8.63;;
11334;SDS011;5722;42.620;23.374;2023-02-28T11:05:28;14.80;;;8.40;;
11334;SDS011;5722;42.620;23.374;2023-02-28T11:08:04;18.83;;;9.43;;
11334;SDS011;5722;42.620;23.374;2023-02-28T11:10:34;18.80;;;8.23;;
11334;SDS011;5722;42.620;23.374;2023-02-28T11:13:16;19.27;;;9.57;;
11334;SDS011;5722;42.620;23.374;2023-02-28T11:15:52;18.93;;;8.70;;
11334;SDS011;5722;42.620;23.374;2023-02-28T11:18:26;18.60;;;8.47;;
11334;SDS011;5722;42.620;23.374;2023-02-28T11:21:15;21.90;;;9.37;;
11334;SDS011;5722;42.620;23.374;2023-02-28T11:23:58;15.40;;;8.80;;
11334;SDS011;5722;42.620;23.374;2023-02-28T11:26:45;14.23;;;9.20;;
11334;SDS011;5722;42.620;23.374;2023-02-28T11:29:26;14.03;;;9.27;;
11334;SDS011;5722;42.620;23.374;2023-02-28T11:32:16;18.27;;;9.37;;
11334;SDS011;5722;42.620;23.374;2023-02-28T11:37:30;16.93;;;9.70;;
11334;SDS011;5722;42.620;23.374;2023-02-28T11:40:01;14.30;;;9.00;;
11334;SDS011;5722;42.620;23.374;2023-02-28T11:42:41;18.20;;;9.63;;
11334;SDS011;5722;42.620;23.374;2023-02-28T11:45:38;25.50;;;13.30;;
11334;SDS011;5722;42.620;23.374;2023-02-28T11:48:46;17.27;;;10.47;;
11334;SDS011;5722;42.620;23.374;2023-02-28T11:51:27;20.80;;;9.40;;
11334;SDS011;5722;42.620;23.374;2023-02-28T11:54:03;21.63;;;11.03;;
11334;SDS011;5722;42.620;23.374;2023-02-28T11:56:43;20.20;;;10.37;;
11334;SDS011;5722;42.620;23.374;2023-02-28T11:59:47;16.93;;;9.93;;
11334;SDS011;5722;42.620;23.374;2023-02-28T12:05:14;24.80;;;11.00;;
11334;SDS011;5722;42.620;23.374;2023-02-28T12:07:51;19.30;;;11.10;;
11334;SDS011;5722;42.620;23.374;2023-02-28T12:13:12;22.23;;;10.63;;
11334;SDS011;5722;42.620;23.374;2023-02-28T12:16:09;20.30;;;12.10;;
11334;SDS011;5722;42.620;23.374;2023-02-28T12:18:53;20.73;;;10.27;;
11334;SDS011;5722;42.620;23.374;2023-02-28T12:21:45;20.20;;;11.10;;
11334;SDS011;5722;42.620;23.374;2023-02-28T12:24:32;16.00;;;10.33;;
11334;SDS011;5722;42.620;23.374;2023-02-28T12:27:10;20.00;;;11.23;;
11334;SDS011;5722;42.620;23.374;2023-02-28T12:29:53;19.20;;;11.53;;
11334;SDS011;5722;42.620;23.374;2023-02-28T12:32:40;20.97;;;11.37;;
11334;SDS011;5722;42.620;23.374;2023-02-28T12:35:11;31.27;;;11.90;;
11334;SDS011;5722;42.620;23.374;2023-02-28T12:37:45;22.93;;;10.87;;
11334;SDS011;5722;42.620;23.374;2023-02-28T12:40:32;15.60;;;10.67;;
11334;SDS011;5722;42.620;23.374;2023-02-28T12:43:35;20.30;;;11.73;;
11334;SDS011;5722;42.620;23.374;2023-02-28T12:46:24;19.93;;;11.73;;
11334;SDS011;5722;42.620;23.374;2023-02-28T12:48:58;21.13;;;11.27;;
11334;SDS011;5722;42.620;23.374;2023-02-28T12:54:12;16.70;;;11.03;;
11334;SDS011;5722;42.620;23.374;2023-02-28T12:59:51;16.33;;;11.70;;
11334;SDS011;5722;42.620;23.374;2023-02-28T13:14:04;17.30;;;10.10;;
11334;SDS011;5722;42.620;23.374;2023-02-28T13:19:56;18.63;;;10.17;;
11334;SDS011;5722;42.620;23.374;2023-02-28T13:29:11;18.03;;;10.00;;
11334;SDS011;5722;42.620;23.374;2023-02-28T13:37:42;18.07;;;10.37;;
11334;SDS011;5722;42.620;23.374;2023-02-28T13:40:28;16.50;;;9.70;;
11334;SDS011;5722;42.620;23.374;2023-02-28T13:43:09;16.10;;;10.00;;
11334;SDS011;5722;42.620;23.374;2023-02-28T13:59:59;17.57;;;10.63;;
11334;SDS011;5722;42.620;23.374;2023-02-28T14:31:48;21.33;;;11.20;;
11334;SDS011;5722;42.620;23.374;2023-02-28T14:34:30;20.97;;;11.33;;
11334;SDS011;5722;42.620;23.374;2023-02-28T14:37:00;28.87;;;12.13;;
11334;SDS011;5722;42.620;23.374;2023-02-28T14:39:32;17.77;;;12.00;;
11334;SDS011;5722;42.620;23.374;2023-02-28T14:42:02;22.60;;;12.27;;
11334;SDS011;5722;42.620;23.374;2023-02-28T14:44:30;24.17;;;12.63;;
11334;SDS011;5722;42.620;23.374;2023-02-28T14:47:16;20.07;;;11.00;;
11334;SDS011;5722;42.620;23.374;2023-02-28T14:49:51;20.93;;;11.67;;
11334;SDS011;5722;42.620;23.374;2023-02-28T14:52:38;23.63;;;12.37;;
11334;SDS011;5722;42.620;23.374;2023-02-28T14:55:12;36.27;;;12.43;;
11334;SDS011;5722;42.620;23.374;2023-02-28T15:00:55;17.27;;;10.90;;
11334;SDS011;5722;42.620;23.374;2023-02-28T15:12:09;20.33;;;11.13;;
11334;SDS011;5722;42.620;23.374;2023-02-28T15:14:58;16.63;;;11.70;;
11334;SDS011;5722;42.620;23.374;2023-02-28T15:17:46;19.07;;;11.50;;
11334;SDS011;5722;42.620;23.374;2023-02-28T15:20:50;17.83;;;11.13;;
11334;SDS011;5722;42.620;23.374;2023-02-28T15:23:18;22.53;;;11.40;;
11334;SDS011;5722;42.620;23.374;2023-02-28T15:26:10;20.97;;;11.53;;
11334;SDS011;5722;42.620;23.374;2023-02-28T15:40:32;20.33;;;10.53;;
11334;SDS011;5722;42.620;23.374;2023-02-28T15:43:05;15.70;;;9.93;;
11334;SDS011;5722;42.620;23.374;2023-02-28T15:45:37;17.17;;;10.30;;
11334;SDS011;5722;42.620;23.374;2023-02-28T15:48:14;13.03;;;9.20;;
11334;SDS011;5722;42.620;23.374;2023-02-28T15:51:01;10.97;;;7.80;;
11334;SDS011;5722;42.620;23.374;2023-02-28T15:53:37;14.37;;;9.27;;
11334;SDS011;5722;42.620;23.374;2023-02-28T16:04:26;12.10;;;8.40;;
11334;SDS011;5722;42.620;23.374;2023-02-28T16:07:04;10.37;;;7.63;;
11334;SDS011;5722;42.620;23.374;2023-02-28T16:09:39;12.73;;;7.67;;
11334;SDS011;5722;42.620;23.374;2023-02-28T16:12:09;10.73;;;7.77;;
11334;SDS011;5722;42.620;23.374;2023-02-28T16:14:40;11.87;;;8.60;;
11334;SDS011;5722;42.620;23.374;2023-02-28T16:17:23;11.30;;;8.27;;
11334;SDS011;5722;42.620;23.374;2023-02-28T16:19:59;12.43;;;8.03;;
11334;SDS011;5722;42.620;23.374;2023-02-28T16:22:34;11.57;;;8.00;;
11334;SDS011;5722;42.620;23.374;2023-02-28T16:25:33;10.60;;;8.03;;
11334;SDS011;5722;42.620;23.374;2023-02-28T16:31:25;11.80;;;7.47;;
11334;SDS011;5722;42.620;23.374;2023-02-28T16:33:59;11.87;;;7.80;;
11334;SDS011;5722;42.620;23.374;2023-02-28T16:36:37;10.50;;;7.97;;
11334;SDS011;5722;42.620;23.374;2023-02-28T16:39:11;9.17;;;6.20;;
11334;SDS011;5722;42.620;23.374;2023-02-28T16:41:52;8.57;;;7.27;;
11334;SDS011;5722;42.620;23.374;2023-02-28T16:44:37;8.30;;;7.17;;
11334;SDS011;5722;42.620;23.374;2023-02-28T16:47:28;11.87;;;7.50;;
11334;SDS011;5722;42.620;23.374;2023-02-28T16:49:59;11.43;;;8.10;;
11334;SDS011;5722;42.620;23.374;2023-02-28T16:58:27;9.40;;;6.90;;
11334;SDS011;5722;42.620;23.374;2023-02-28T17:00:57;9.23;;;7.10;;
11334;SDS011;5722;42.620;23.374;2023-02-28T17:03:38;9.10;;;6.80;;
11334;SDS011;5722;42.620;23.374;2023-02-28T17:06:13;12.23;;;6.60;;
11334;SDS011;5722;42.620;23.374;2023-02-28T17:08:42;8.90;;;6.90;;
11334;SDS011;5722;42.620;23.374;2023-02-28T17:11:23;10.20;;;6.80;;
11334;SDS011;5722;42.620;23.374;2023-02-28T17:13:56;7.40;;;5.73;;
11334;SDS011;5722;42.620;23.374;2023-02-28T17:16:27;6.67;;;5.90;;
11334;SDS011;5722;42.620;23.374;2023-02-28T17:19:04;7.53;;;5.63;;
11334;SDS011;5722;42.620;23.374;2023-02-28T17:21:53;9.57;;;5.07;;
11334;SDS011;5722;42.620;23.374;2023-02-28T17:24:25;7.80;;;5.20;;
11334;SDS011;5722;42.620;23.374;2023-02-28T17:26:57;7.00;;;5.40;;
11334;SDS011;5722;42.620;23.374;2023-02-28T17:29:44;9.63;;;5.47;;
11334;SDS011;5722;42.620;23.374;2023-02-28T17:32:13;8.23;;;5.50;;
11334;SDS011;5722;42.620;23.374;2023-02-28T17:34:50;9.37;;;5.60;;
11334;SDS011;5722;42.620;23.374;2023-02-28T17:37:37;10.60;;;5.83;;
11334;SDS011;5722;42.620;23.374;2023-02-28T17:40:09;8.37;;;5.47;;
11334;SDS011;5722;42.620;23.374;2023-02-28T17:42:43;8.20;;;5.70;;
11334;SDS011;5722;42.620;23.374;2023-02-28T17:45:15;7.87;;;5.13;;
11334;SDS011;5722;42.620;23.374;2023-02-28T17:47:51;6.60;;;4.57;;
11334;SDS011;5722;42.620;23.374;2023-02-28T17:50:33;6.63;;;4.10;;
11334;SDS011;5722;42.620;23.374;2023-02-28T17:53:02;6.13;;;4.63;;
11334;SDS011;5722;42.620;23.374;2023-02-28T17:55:36;5.37;;;4.80;;
11334;SDS011;5722;42.620;23.374;2023-02-28T17:58:25;8.90;;;5.53;;
11334;SDS011;5722;42.620;23.374;2023-02-28T18:01:19;7.33;;;5.70;;
11334;SDS011;5722;42.620;23.374;2023-02-28T18:07:10;7.63;;;6.30;;
11334;SDS011;5722;42.620;23.374;2023-02-28T18:09:43;7.03;;;6.33;;
11334;SDS011;5722;42.620;23.374;2023-02-28T18:12:17;7.93;;;6.90;;
11334;SDS011;5722;42.620;23.374;2023-02-28T18:14:49;7.40;;;6.70;;
11334;SDS011;5722;42.620;23.374;2023-02-28T18:17:34;7.97;;;7.17;;
11334;SDS011;5722;42.620;23.374;2023-02-28T18:23:05;6.57;;;5.87;;
11334;SDS011;5722;42.620;23.374;2023-02-28T18:25:52;7.30;;;6.60;;
11334;SDS011;5722;42.620;23.374;2023-02-28T18:28:37;6.90;;;6.20;;
11334;SDS011;5722;42.620;23.374;2023-02-28T18:31:34;6.07;;;5.47;;
11334;SDS011;5722;42.620;23.374;2023-02-28T18:55:06;5.87;;;4.80;;
11334;SDS011;5722;42.620;23.374;2023-02-28T18:57:42;5.53;;;5.03;;
11334;SDS011;5722;42.620;23.374;2023-02-28T19:00:23;4.87;;;4.37;;
11334;SDS011;5722;42.620;23.374;2023-02-28T19:02:57;5.47;;;4.90;;
11334;SDS011;5722;42.620;23.374;2023-02-28T19:08:25;6.73;;;5.13;;
11334;SDS011;5722;42.620;23.374;2023-02-28T19:14:02;5.93;;;5.33;;
11334;SDS011;5722;42.620;23.374;2023-02-28T19:19:16;5.50;;;5.00;;
11334;SDS011;5722;42.620;23.374;2023-02-28T19:21:44;5.70;;;5.20;;
11334;SDS011;5722;42.620;23.374;2023-02-28T19:24:16;7.93;;;5.43;;
11334;SDS011;5722;42.620;23.374;2023-02-28T19:26:58;5.90;;;5.40;;
11334;SDS011;5722;42.620;23.374;2023-02-28T19:29:50;6.33;;;5.73;;
11334;SDS011;5722;42.620;23.374;2023-02-28T19:32:36;5.70;;;5.20;;
11334;SDS011;5722;42.620;23.374;2023-02-28T19:35:19;7.47;;;5.10;;
11334;SDS011;5722;42.620;23.374;2023-02-28T19:38:00;5.93;;;5.00;;
11334;SDS011;5722;42.620;23.374;2023-02-28T19:40:34;5.73;;;5.23;;
11334;SDS011;5722;42.620;23.374;2023-02-28T19:43:23;5.90;;;5.30;;
11334;SDS011;5722;42.620;23.374;2023-02-28T19:46:06;6.60;;;6.00;;
11334;SDS011;5722;42.620;23.374;2023-02-28T19:48:54;6.40;;;5.80;;
11334;SDS011;5722;42.620;23.374;2023-02-28T19:51:56;6.47;;;5.77;;
11334;SDS011;5722;42.620;23.374;2023-02-28T19:54:30;6.10;;;5.50;;
11334;SDS011;5722;42.620;23.374;2023-02-28T19:57:13;6.10;;;5.50;;
11334;SDS011;5722;42.620;23.374;2023-02-28T20:00:00;6.30;;;5.70;;
11334;SDS011;5722;42.620;23.374;2023-02-28T20:02:47;6.83;;;6.13;;